createdAt,value
2019-03-22T00:03:04.577Z,16.85
2019-03-22T00:05:33.272Z,15.48
2019-03-22T00:08:01.863Z,15.75
2019-03-22T00:10:30.508Z,15.50
2019-03-22T00:12:59.164Z,16.45
2019-03-22T00:15:27.806Z,15.70
2019-03-22T00:17:56.405Z,16.42
2019-03-22T00:20:25.036Z,16.60
2019-03-22T00:22:53.716Z,17.57
2019-03-22T00:25:22.367Z,16.87
2019-03-22T00:27:51.006Z,15.93
2019-03-22T00:30:19.590Z,15.68
2019-03-22T00:32:48.153Z,15.45
2019-03-22T00:35:16.843Z,15.98
2019-03-22T00:37:45.495Z,16.23
2019-03-22T00:40:15.730Z,16.07
2019-03-22T00:42:44.293Z,15.38
2019-03-22T00:45:12.995Z,17.10
2019-03-22T00:47:41.661Z,16.30
2019-03-22T00:50:12.103Z,15.05
2019-03-22T00:52:40.775Z,14.73
2019-03-22T00:55:09.502Z,14.73
2019-03-22T00:57:38.160Z,15.38
2019-03-22T01:00:14.132Z,15.23
2019-03-22T01:02:42.802Z,15.53
2019-03-22T01:05:11.446Z,14.85
2019-03-22T01:07:40.038Z,14.87
2019-03-22T01:10:10.788Z,15.03
2019-03-22T01:12:39.271Z,15.38
2019-03-22T01:15:10.025Z,15.13
2019-03-22T01:17:38.679Z,15.03
2019-03-22T01:20:08.949Z,14.00
2019-03-22T01:22:37.517Z,15.30
2019-03-22T01:25:09.917Z,15.03
2019-03-22T01:27:40.637Z,14.73
2019-03-22T01:30:14.646Z,14.53
2019-03-22T01:32:43.213Z,15.25
2019-03-22T01:35:11.919Z,14.60
2019-03-22T01:37:40.630Z,14.55
2019-03-22T01:40:12.764Z,14.25
2019-03-22T01:45:12.088Z,14.10
2019-03-22T01:47:40.643Z,13.55
2019-03-22T01:50:17.106Z,13.38
2019-03-22T01:52:45.764Z,13.03
2019-03-22T01:55:14.323Z,13.48
2019-03-22T01:57:52.395Z,13.80
2019-03-22T02:00:15.223Z,13.58
2019-03-22T02:02:43.776Z,12.20
2019-03-22T02:05:12.398Z,13.65
2019-03-22T02:07:40.951Z,12.95
2019-03-22T02:10:11.225Z,13.65
2019-03-22T02:12:39.811Z,13.60
2019-03-22T02:15:13.218Z,13.80
2019-03-22T02:17:42.172Z,13.80
2019-03-22T02:20:13.058Z,13.13
2019-03-22T02:22:41.616Z,13.18
2019-03-22T02:25:10.189Z,13.45
2019-03-22T02:27:38.888Z,12.07
2019-03-22T02:30:13.295Z,12.43
2019-03-22T02:32:41.982Z,12.75
2019-03-22T02:35:21.419Z,12.03
2019-03-22T02:37:40.956Z,12.80
2019-03-22T02:40:11.091Z,11.90
2019-03-22T02:42:39.623Z,12.33
2019-03-22T02:45:10.619Z,12.55
2019-03-22T02:47:39.227Z,12.58
2019-03-22T02:50:17.742Z,12.60
2019-03-22T02:52:40.360Z,12.30
2019-03-22T02:55:09.944Z,11.68
2019-03-22T02:57:38.502Z,12.03
2019-03-22T03:00:10.477Z,12.03
2019-03-22T03:02:39.108Z,12.05
2019-03-22T03:05:09.254Z,11.50
2019-03-22T03:07:37.870Z,12.40
2019-03-22T03:10:16.928Z,11.83
2019-03-22T03:12:45.595Z,12.55
2019-03-22T03:15:18.258Z,12.70
2019-03-22T03:17:46.936Z,12.03
2019-03-22T03:20:16.785Z,12.15
2019-03-22T03:22:45.465Z,12.50
2019-03-22T03:25:14.210Z,12.73
2019-03-22T03:27:42.884Z,11.80
2019-03-22T03:30:16.690Z,12.35
2019-03-22T03:32:45.344Z,12.25
2019-03-22T03:35:14.006Z,11.85
2019-03-22T03:37:42.568Z,12.40
2019-03-22T03:40:13.044Z,12.63
2019-03-22T03:42:41.626Z,12.45
2019-03-22T03:45:19.160Z,12.70
2019-03-22T03:47:47.774Z,12.30
2019-03-22T03:50:16.421Z,12.73
2019-03-22T03:52:45.091Z,12.68
2019-03-22T03:55:13.592Z,12.68
2019-03-22T03:57:43.060Z,11.83
2019-03-22T04:00:11.700Z,11.75
2019-03-22T04:02:40.234Z,11.93
2019-03-22T04:05:08.857Z,12.58
2019-03-22T04:07:37.475Z,11.30
2019-03-22T04:10:07.690Z,11.00
2019-03-22T04:12:36.255Z,11.45
2019-03-22T04:15:06.489Z,11.90
2019-03-22T04:17:35.134Z,11.60
2019-03-22T04:20:05.215Z,10.48
2019-03-22T04:22:36.350Z,11.33
2019-03-22T04:25:05.920Z,10.85
2019-03-22T04:27:34.460Z,10.68
2019-03-22T04:30:03.083Z,10.58
2019-03-22T04:32:31.684Z,11.25
2019-03-22T04:35:00.414Z,10.78
2019-03-22T04:37:29.431Z,10.82
2019-03-22T04:39:58.094Z,10.78
2019-03-22T04:42:26.707Z,10.70
2019-03-22T04:44:55.347Z,11.35
2019-03-22T04:47:24.031Z,11.80
2019-03-22T04:49:52.513Z,11.20
2019-03-22T04:52:21.211Z,11.70
2019-03-22T04:54:49.882Z,11.65
2019-03-22T04:57:18.448Z,11.40
2019-03-22T04:59:47.107Z,11.90
2019-03-22T05:02:15.797Z,12.65
2019-03-22T05:04:44.360Z,12.40
2019-03-22T05:07:12.921Z,13.13
2019-03-22T05:09:41.584Z,12.23
2019-03-22T05:12:10.640Z,11.28
2019-03-22T05:14:39.237Z,11.83
2019-03-22T05:17:07.828Z,13.53
2019-03-22T05:19:37.289Z,12.07
2019-03-22T05:22:06.071Z,11.43
2019-03-22T05:24:34.566Z,11.93
2019-03-22T05:27:03.244Z,12.15
2019-03-22T05:29:31.950Z,11.25
2019-03-22T05:32:08.168Z,11.73
2019-03-22T05:34:36.782Z,12.30
2019-03-22T05:37:05.410Z,11.57
2019-03-22T05:39:33.974Z,11.03
2019-03-22T05:42:02.676Z,10.70
2019-03-22T05:44:31.303Z,10.63
2019-03-22T05:46:59.951Z,11.25
2019-03-22T05:49:28.630Z,11.08
2019-03-22T05:51:57.205Z,10.88
2019-03-22T05:54:25.899Z,11.00
2019-03-22T05:56:54.469Z,11.18
2019-03-22T05:59:23.152Z,10.75
2019-03-22T06:01:51.802Z,10.65
2019-03-22T06:04:20.475Z,10.82
2019-03-22T06:06:49.045Z,10.75
2019-03-22T06:09:17.721Z,10.28
2019-03-22T06:11:46.397Z,11.28
2019-03-22T06:14:14.967Z,11.12
2019-03-22T06:16:43.660Z,10.68
2019-03-22T06:19:12.316Z,10.32
2019-03-22T06:21:41.005Z,12.20
2019-03-22T06:24:09.629Z,10.48
2019-03-22T06:26:38.307Z,11.78
2019-03-22T06:29:06.866Z,11.45
2019-03-22T06:31:35.478Z,11.10
2019-03-22T06:34:04.131Z,11.78
2019-03-22T06:36:32.818Z,12.50
2019-03-22T06:39:01.555Z,11.20
2019-03-22T06:41:30.140Z,11.60
2019-03-22T06:43:58.807Z,11.55
2019-03-22T06:46:27.371Z,11.43
2019-03-22T06:48:56.035Z,10.75
2019-03-22T06:51:24.610Z,9.55
2019-03-22T06:53:53.286Z,10.08
2019-03-22T06:56:21.947Z,10.53
2019-03-22T06:58:50.609Z,9.55
2019-03-22T07:01:19.267Z,10.63
2019-03-22T07:03:47.953Z,9.38
2019-03-22T07:06:16.522Z,9.63
2019-03-22T07:08:45.210Z,10.05
2019-03-22T07:11:13.897Z,9.35
2019-03-22T07:13:42.462Z,9.03
2019-03-22T07:16:11.134Z,8.80
2019-03-22T07:18:39.776Z,8.63
2019-03-22T07:21:08.371Z,8.60
2019-03-22T07:23:37.014Z,8.10
2019-03-22T07:26:06.094Z,7.78
2019-03-22T07:28:34.600Z,8.23
2019-03-22T07:31:03.278Z,10.13
2019-03-22T07:33:31.838Z,9.68
2019-03-22T07:36:00.394Z,9.65
2019-03-22T07:38:28.890Z,9.70
2019-03-22T07:40:57.582Z,9.75
2019-03-22T07:43:26.067Z,9.90
2019-03-22T07:45:54.718Z,10.23
2019-03-22T07:48:23.263Z,10.32
2019-03-22T07:50:51.909Z,10.05
2019-03-22T07:53:20.533Z,10.32
2019-03-22T07:55:49.188Z,10.28
2019-03-22T07:58:17.739Z,13.58
2019-03-22T08:00:46.373Z,13.55
2019-03-22T08:03:14.972Z,14.13
2019-03-22T08:05:51.051Z,13.32
2019-03-22T08:08:13.830Z,14.87
2019-03-22T08:10:42.497Z,15.10
2019-03-22T08:13:11.136Z,15.20
2019-03-22T08:15:39.819Z,14.30
2019-03-22T08:18:08.467Z,14.55
2019-03-22T08:20:38.756Z,14.90
2019-03-22T08:23:10.423Z,14.80
2019-03-22T08:28:06.869Z,13.05
2019-03-22T08:30:42.899Z,14.00
2019-03-22T08:33:05.814Z,14.05
2019-03-22T08:35:34.493Z,12.88
2019-03-22T08:38:03.040Z,12.30
2019-03-22T08:40:31.674Z,11.88
2019-03-22T08:43:00.273Z,12.15
2019-03-22T08:45:28.863Z,12.55
2019-03-22T08:47:57.485Z,11.90
2019-03-22T08:50:26.033Z,12.63
2019-03-22T08:52:54.591Z,12.90
2019-03-22T08:55:23.188Z,13.68
2019-03-22T08:57:51.816Z,14.25
2019-03-22T09:00:20.395Z,14.05
2019-03-22T09:02:49.837Z,13.78
2019-03-22T09:05:18.743Z,13.60
2019-03-22T09:07:47.427Z,13.38
2019-03-22T09:10:16.094Z,12.80
2019-03-22T09:12:44.778Z,12.28
2019-03-22T09:15:13.437Z,14.00
2019-03-22T09:17:42.207Z,13.60
2019-03-22T09:20:11.221Z,13.75
2019-03-22T09:22:39.879Z,14.15
2019-03-22T09:25:08.510Z,13.95
2019-03-22T09:27:37.195Z,12.98
2019-03-22T09:30:08.655Z,13.18
2019-03-22T09:32:37.217Z,13.25
2019-03-22T09:35:06.618Z,14.53
2019-03-22T09:37:35.245Z,14.45
2019-03-22T09:40:08.312Z,13.95
2019-03-22T09:42:36.396Z,14.63
2019-03-22T09:45:06.774Z,14.28
2019-03-22T09:47:35.620Z,14.18
2019-03-22T09:50:07.131Z,18.10
2019-03-22T09:52:35.709Z,19.60
2019-03-22T09:55:13.311Z,19.30
2019-03-22T09:57:35.181Z,19.57
2019-03-22T10:00:04.854Z,19.90
2019-03-22T10:02:33.512Z,19.07
2019-03-22T10:05:02.161Z,21.30
2019-03-22T10:07:30.908Z,16.52
2019-03-22T10:09:59.493Z,16.90
2019-03-22T10:12:28.166Z,15.23
2019-03-22T10:14:56.813Z,15.15
2019-03-22T10:17:25.500Z,14.35
2019-03-22T10:19:54.045Z,14.63
2019-03-22T10:22:22.730Z,12.25
2019-03-22T10:24:51.378Z,13.00
2019-03-22T10:27:19.992Z,14.20
2019-03-22T10:29:48.655Z,12.73
2019-03-22T10:32:17.315Z,13.20
2019-03-22T10:34:45.990Z,13.93
2019-03-22T10:37:14.619Z,14.45
2019-03-22T10:39:43.307Z,15.00
2019-03-22T10:42:11.978Z,14.87
2019-03-22T10:44:40.644Z,13.93
2019-03-22T10:47:09.293Z,14.38
2019-03-22T10:49:37.912Z,13.72
2019-03-22T10:52:06.557Z,13.78
2019-03-22T10:54:35.238Z,13.90
2019-03-22T10:57:03.919Z,13.60
2019-03-22T10:59:32.503Z,13.18
2019-03-22T11:02:03.601Z,12.63
2019-03-22T11:04:31.388Z,11.00
2019-03-22T11:07:00.094Z,11.43
2019-03-22T11:09:28.755Z,11.95
2019-03-22T11:11:57.443Z,11.28
2019-03-22T11:14:26.079Z,12.07
2019-03-22T11:16:54.694Z,12.15
2019-03-22T11:19:23.266Z,12.40
2019-03-22T11:21:51.775Z,12.43
2019-03-22T11:24:20.436Z,11.75
2019-03-22T11:26:49.098Z,11.75
2019-03-22T11:29:17.764Z,12.05
2019-03-22T11:31:46.417Z,12.13
2019-03-22T11:34:15.097Z,11.60
2019-03-22T11:36:43.734Z,11.33
2019-03-22T11:39:15.813Z,11.40
2019-03-22T11:41:42.734Z,10.85
2019-03-22T11:44:11.316Z,11.50
2019-03-22T11:46:39.998Z,12.70
2019-03-22T11:49:08.645Z,12.98
2019-03-22T11:51:37.325Z,12.70
2019-03-22T11:54:05.889Z,12.00
2019-03-22T11:56:34.509Z,12.05
2019-03-22T11:59:03.091Z,12.88
2019-03-22T12:01:31.767Z,13.28
2019-03-22T12:04:00.360Z,12.60
2019-03-22T12:06:29.021Z,12.30
2019-03-22T12:08:57.615Z,11.57
2019-03-22T12:11:26.248Z,12.60
2019-03-22T12:13:54.937Z,12.53
2019-03-22T12:16:23.494Z,12.15
2019-03-22T12:18:52.179Z,12.75
2019-03-22T12:21:20.756Z,11.93
2019-03-22T12:23:49.354Z,13.08
2019-03-22T12:26:18.002Z,12.95
2019-03-22T12:28:46.606Z,12.93
2019-03-22T12:31:15.256Z,13.00
2019-03-22T12:33:43.941Z,13.08
2019-03-22T12:36:12.617Z,13.58
2019-03-22T12:38:41.198Z,12.95
2019-03-22T12:41:09.824Z,13.35
2019-03-22T12:43:38.399Z,12.58
2019-03-22T12:46:07.082Z,11.85
2019-03-22T12:48:35.664Z,13.32
2019-03-22T12:51:04.337Z,13.13
2019-03-22T12:53:32.976Z,12.85
2019-03-22T12:56:01.593Z,13.08
2019-03-22T12:58:30.233Z,12.60
2019-03-22T13:00:58.904Z,13.08
2019-03-22T13:03:27.594Z,12.13
2019-03-22T13:05:56.190Z,13.25
2019-03-22T13:08:24.841Z,12.70
2019-03-22T13:10:53.407Z,13.32
2019-03-22T13:13:22.099Z,12.47
2019-03-22T13:15:50.680Z,12.80
2019-03-22T13:18:19.276Z,13.00
2019-03-22T13:20:47.935Z,12.30
2019-03-22T13:23:16.619Z,12.25
2019-03-22T13:25:45.177Z,11.28
2019-03-22T13:28:13.868Z,12.47
2019-03-22T13:30:42.535Z,11.90
2019-03-22T13:33:11.184Z,11.03
2019-03-22T13:35:39.791Z,11.50
2019-03-22T13:38:08.307Z,11.45
2019-03-22T13:40:37.259Z,11.70
2019-03-22T13:43:05.909Z,10.98
2019-03-22T13:45:34.582Z,9.88
2019-03-22T13:48:03.221Z,9.60
2019-03-22T13:50:31.901Z,9.78
2019-03-22T13:53:00.535Z,10.13
2019-03-22T13:55:29.227Z,10.58
2019-03-22T13:57:57.861Z,10.95
2019-03-22T14:00:26.537Z,10.88
2019-03-22T14:03:03.106Z,12.15
2019-03-22T14:05:25.502Z,12.78
2019-03-22T14:07:53.933Z,13.10
2019-03-22T14:10:31.030Z,12.15
2019-03-22T14:13:01.199Z,11.05
2019-03-22T14:15:29.859Z,12.30
2019-03-22T14:17:58.939Z,12.55
2019-03-22T14:20:27.571Z,12.13
2019-03-22T14:22:56.260Z,11.45
2019-03-22T14:25:24.895Z,11.88
2019-03-22T14:27:53.988Z,12.25
2019-03-22T14:30:22.569Z,11.75
2019-03-22T14:32:51.190Z,12.65
2019-03-22T14:35:19.819Z,12.28
2019-03-22T14:37:48.497Z,12.53
2019-03-22T14:40:17.103Z,11.18
2019-03-22T14:42:45.735Z,11.73
2019-03-22T14:45:14.364Z,12.15
2019-03-22T14:47:42.997Z,12.13
2019-03-22T14:50:12.180Z,11.33
2019-03-22T14:52:40.763Z,11.97
2019-03-22T14:55:09.430Z,10.80
2019-03-22T14:57:48.390Z,11.48
2019-03-22T15:00:10.828Z,10.58
2019-03-22T15:02:39.508Z,11.60
2019-03-22T15:05:08.143Z,12.05
2019-03-22T15:07:36.795Z,10.08
2019-03-22T15:10:07.876Z,10.90
2019-03-22T15:12:36.542Z,11.38
2019-03-22T15:15:11.541Z,11.50
2019-03-22T15:17:44.618Z,9.50
2019-03-22T15:20:30.057Z,10.55
2019-03-22T15:23:16.408Z,10.25
2019-03-22T15:26:02.752Z,10.20
2019-03-22T15:28:32.970Z,9.40
2019-03-22T15:31:19.355Z,9.28
2019-03-22T15:36:26.501Z,9.70
2019-03-22T15:38:56.824Z,9.38
2019-03-22T15:41:25.612Z,9.50
2019-03-22T15:43:54.313Z,9.90
2019-03-22T15:46:22.958Z,8.85
2019-03-22T15:48:51.515Z,9.50
2019-03-22T15:51:20.096Z,9.58
2019-03-22T15:53:48.705Z,9.88
2019-03-22T15:56:17.345Z,9.58
2019-03-22T15:58:46.018Z,9.58
2019-03-22T16:01:14.672Z,9.73
2019-03-22T16:03:44.475Z,9.65
2019-03-22T16:06:13.324Z,10.18
2019-03-22T16:08:41.864Z,9.93
2019-03-22T16:11:10.460Z,10.58
2019-03-22T16:13:39.164Z,10.82
2019-03-22T16:16:07.821Z,10.30
2019-03-22T16:18:36.428Z,10.28
2019-03-22T16:21:05.030Z,11.48
2019-03-22T16:23:33.615Z,11.95
2019-03-22T16:26:02.304Z,11.88
2019-03-22T16:28:30.947Z,11.80
2019-03-22T16:30:59.578Z,11.75
2019-03-22T16:33:28.214Z,11.78
2019-03-22T16:35:56.832Z,11.70
2019-03-22T16:38:25.519Z,11.60
2019-03-22T16:40:54.163Z,12.10
2019-03-22T16:43:22.846Z,11.30
2019-03-22T16:45:51.518Z,12.10
2019-03-22T16:48:20.109Z,12.73
2019-03-22T16:50:48.766Z,12.35
2019-03-22T16:53:17.442Z,13.13
2019-03-22T16:55:46.013Z,12.58
2019-03-22T16:58:14.695Z,13.80
2019-03-22T17:00:43.262Z,13.38
2019-03-22T17:03:11.948Z,13.72
2019-03-22T17:05:40.527Z,13.72
2019-03-22T17:08:09.116Z,14.38
2019-03-22T17:10:37.712Z,14.50
2019-03-22T17:13:06.398Z,12.15
2019-03-22T17:15:35.053Z,13.70
2019-03-22T17:18:04.070Z,12.90
2019-03-22T17:20:32.917Z,12.93
2019-03-22T17:23:02.774Z,13.10
2019-03-22T17:25:31.611Z,13.00
2019-03-22T17:28:00.463Z,12.93
2019-03-22T17:30:29.356Z,13.55
2019-03-22T17:32:58.184Z,12.90
2019-03-22T17:35:27.055Z,13.50
2019-03-22T17:37:55.918Z,17.37
2019-03-22T17:40:24.755Z,19.02
2019-03-22T17:42:53.583Z,20.00
2019-03-22T17:45:22.463Z,20.05
2019-03-22T17:47:51.283Z,20.80
2019-03-22T17:50:20.249Z,19.85
2019-03-22T17:52:49.031Z,20.48
2019-03-22T17:55:17.865Z,19.77
2019-03-22T17:57:46.812Z,20.55
2019-03-22T18:00:25.676Z,20.90
2019-03-22T18:02:54.641Z,21.17
2019-03-22T18:05:23.442Z,20.15
2019-03-22T18:07:52.312Z,20.57
2019-03-22T18:10:21.127Z,21.77
2019-03-22T18:12:49.925Z,21.97
2019-03-22T18:15:18.736Z,21.80
2019-03-22T18:17:47.602Z,22.35
2019-03-22T18:20:17.033Z,22.95
2019-03-22T18:22:45.897Z,21.45
2019-03-22T18:25:15.786Z,21.90
2019-03-22T18:27:45.012Z,22.98
2019-03-22T18:30:15.336Z,22.67
2019-03-22T18:32:44.244Z,23.40
2019-03-22T18:35:13.153Z,23.67
2019-03-22T18:37:42.168Z,22.75
2019-03-22T18:40:15.109Z,21.68
2019-03-22T18:42:43.645Z,22.17
2019-03-22T18:45:14.809Z,23.60
2019-03-22T18:47:43.893Z,22.42
2019-03-22T18:50:13.757Z,23.05
2019-03-22T18:52:42.560Z,21.68
2019-03-22T18:55:11.615Z,21.23
2019-03-22T18:57:40.445Z,21.70
2019-03-22T19:00:12.338Z,21.82
2019-03-22T19:02:41.092Z,22.05
2019-03-22T19:05:09.959Z,22.85
2019-03-22T19:07:38.796Z,21.68
2019-03-22T19:10:12.428Z,20.85
2019-03-22T19:12:41.263Z,22.25
2019-03-22T19:15:12.233Z,20.95
2019-03-22T19:17:41.067Z,21.45
2019-03-22T19:20:14.550Z,21.20
2019-03-22T19:22:43.406Z,20.72
2019-03-22T19:25:14.390Z,21.40
2019-03-22T19:27:43.131Z,20.25
2019-03-22T19:30:16.962Z,21.00
2019-03-22T19:32:45.832Z,19.90
2019-03-22T19:35:15.857Z,20.85
2019-03-22T19:37:44.705Z,21.68
2019-03-22T19:40:17.199Z,21.02
2019-03-22T19:42:46.078Z,20.32
2019-03-22T19:45:16.849Z,20.17
2019-03-22T19:47:45.960Z,21.85
2019-03-22T19:50:16.282Z,20.88
2019-03-22T19:52:45.155Z,20.60
2019-03-22T19:55:14.045Z,20.60
2019-03-22T19:57:42.896Z,20.57
2019-03-22T20:00:20.053Z,19.90
2019-03-22T20:02:49.349Z,20.32
2019-03-22T20:05:29.507Z,21.17
2019-03-22T20:07:58.381Z,20.75
2019-03-22T20:10:27.193Z,20.62
2019-03-22T20:12:56.167Z,20.27
2019-03-22T20:15:25.039Z,20.32
2019-03-22T20:17:53.795Z,21.60
2019-03-22T20:20:22.650Z,21.07
2019-03-22T20:22:51.471Z,21.30
2019-03-22T20:25:20.328Z,19.87
2019-03-22T20:27:49.204Z,19.90
2019-03-22T20:30:20.171Z,21.05
2019-03-22T20:32:48.987Z,20.92
2019-03-22T20:35:17.804Z,21.57
2019-03-22T20:37:46.603Z,23.00
2019-03-22T20:40:18.232Z,23.42
2019-03-22T20:42:47.177Z,22.52
2019-03-22T20:45:24.072Z,22.00
2019-03-22T20:47:46.601Z,22.67
2019-03-22T20:50:15.604Z,23.50
2019-03-22T20:52:44.466Z,22.42
2019-03-22T20:55:13.440Z,23.15
2019-03-22T20:57:42.301Z,22.10
2019-03-22T21:00:16.059Z,23.38
2019-03-22T21:02:44.894Z,22.15
2019-03-22T21:05:13.851Z,23.27
2019-03-22T21:07:42.682Z,23.10
2019-03-22T21:10:12.691Z,22.25
2019-03-22T21:12:41.521Z,24.35
2019-03-22T21:15:12.145Z,23.83
2019-03-22T21:17:40.982Z,24.52
2019-03-22T21:20:11.345Z,24.35
2019-03-22T21:22:40.169Z,24.40
2019-03-22T21:25:10.546Z,25.25
2019-03-22T21:27:40.051Z,23.00
2019-03-22T21:30:14.396Z,24.02
2019-03-22T21:32:45.479Z,24.57
2019-03-22T21:35:21.997Z,24.98
2019-03-22T21:37:44.201Z,24.85
2019-03-22T21:40:13.044Z,25.77
2019-03-22T21:42:41.861Z,27.90
2019-03-22T21:45:11.488Z,26.70
2019-03-22T21:47:40.303Z,28.12
2019-03-22T21:50:10.414Z,27.80
2019-03-22T21:52:39.193Z,27.17
2019-03-22T21:55:10.973Z,28.57
2019-03-22T21:57:39.815Z,27.07
2019-03-22T22:00:11.227Z,26.52
2019-03-22T22:02:40.059Z,25.32
2019-03-22T22:05:09.885Z,25.02
2019-03-22T22:07:38.790Z,24.65
2019-03-22T22:10:08.259Z,24.43
2019-03-22T22:12:37.119Z,24.27
2019-03-22T22:15:09.435Z,23.98
2019-03-22T22:17:39.446Z,24.72
2019-03-22T22:20:08.370Z,23.27
2019-03-22T22:22:37.216Z,23.83
2019-03-22T22:25:07.563Z,23.73
2019-03-22T22:27:36.425Z,24.32
2019-03-22T22:30:12.587Z,23.65
2019-03-22T22:32:41.451Z,23.22
2019-03-22T22:35:10.287Z,22.48
2019-03-22T22:37:39.127Z,22.93
2019-03-22T22:40:09.785Z,22.27
2019-03-22T22:42:38.656Z,23.15
2019-03-22T22:45:08.773Z,22.67
2019-03-22T22:47:37.597Z,22.58
2019-03-22T22:50:08.273Z,23.00
2019-03-22T22:52:37.103Z,22.25
2019-03-22T22:55:06.165Z,22.87
2019-03-22T22:57:34.980Z,22.62
2019-03-22T23:00:08.692Z,22.70
2019-03-22T23:02:37.527Z,21.45
2019-03-22T23:05:06.979Z,21.65
2019-03-22T23:07:35.852Z,20.27
2019-03-22T23:10:06.578Z,22.15
2019-03-22T23:12:35.940Z,22.15
2019-03-22T23:15:09.241Z,20.97
2019-03-22T23:17:38.140Z,20.70
2019-03-22T23:20:08.759Z,20.88
2019-03-22T23:22:37.626Z,20.25
2019-03-22T23:25:07.166Z,19.90
2019-03-22T23:27:36.945Z,20.68
2019-03-22T23:30:07.780Z,20.12
2019-03-22T23:32:36.637Z,18.90
2019-03-22T23:35:06.951Z,19.55
2019-03-22T23:37:35.809Z,19.02
2019-03-22T23:40:06.559Z,20.60
2019-03-22T23:42:35.415Z,19.80
2019-03-22T23:45:06.637Z,20.05
2019-03-22T23:47:35.502Z,20.45
2019-03-22T23:50:07.063Z,20.02
2019-03-22T23:52:35.991Z,20.62
2019-03-22T23:55:06.336Z,21.30
2019-03-22T23:57:35.154Z,20.45
